Bradford, Texas
Current Conditions -  °F | °C
As of 10:15 PM on Wednesday 17 Dec 2014 (Local Time) from KPSN Reporting Station
Overcast Overcast  
Wind Chill: 44°   Ceiling: 2200
Heat Index: 46°   Visibility: 10mi
Dew Point: 46°   Wind: 6mph
Humidity: 97%   Direction: 40°NE
Pressure: 30.16"   Gusts: NA
Location:  31.935°N, 95.7672°W
Report Text: KPSN 180415Z AUTO 04005KT 10SM OVC022 07/07 A3016 RMK AO2 T00800075
Loading
Personal Weather Stations






























Interactive Weather Map New forecast layout! Learn more

10-Day Weather Forecast

Advertisements
Track Severe Weather on mobile